createdAt,value
2018-12-05T00:02:23.088Z,23.40
2018-12-05T00:04:50.544Z,29.07
2018-12-05T00:07:17.992Z,25.93
2018-12-05T00:09:45.471Z,25.50
2018-12-05T00:12:12.918Z,23.13
2018-12-05T00:14:40.367Z,23.43
2018-12-05T00:17:07.850Z,21.97
2018-12-05T00:19:35.284Z,23.93
2018-12-05T00:22:02.740Z,23.17
2018-12-05T00:24:30.213Z,23.40
2018-12-05T00:26:57.683Z,27.57
2018-12-05T00:29:25.116Z,27.50
2018-12-05T00:31:52.577Z,25.70
2018-12-05T00:34:20.036Z,29.73
2018-12-05T00:36:47.479Z,26.27
2018-12-05T00:39:14.943Z,27.33
2018-12-05T00:41:42.414Z,26.90
2018-12-05T00:44:09.871Z,27.77
2018-12-05T00:46:37.387Z,28.00
2018-12-05T00:49:04.885Z,26.77
2018-12-05T00:51:32.340Z,31.23
2018-12-05T00:53:59.779Z,30.43
2018-12-05T00:56:27.260Z,26.33
2018-12-05T00:58:54.689Z,27.50
2018-12-05T01:01:24.147Z,31.00
2018-12-05T01:03:51.587Z,27.60
2018-12-05T01:06:19.099Z,22.60
2018-12-05T01:08:46.532Z,24.43
2018-12-05T01:11:13.980Z,25.20
2018-12-05T01:13:41.427Z,27.00
2018-12-05T01:16:08.916Z,25.60
2018-12-05T01:18:36.356Z,23.37
2018-12-05T01:21:03.967Z,25.53
2018-12-05T01:23:31.430Z,24.47
2018-12-05T01:25:58.948Z,29.33
2018-12-05T01:28:26.413Z,23.50
2018-12-05T01:30:53.849Z,23.57
2018-12-05T01:33:21.306Z,24.83
2018-12-05T01:35:48.846Z,27.43
2018-12-05T01:38:16.302Z,21.17
2018-12-05T01:40:43.770Z,25.83
2018-12-05T01:43:11.219Z,28.43
2018-12-05T01:45:38.660Z,27.07
2018-12-05T01:48:06.123Z,30.57
2018-12-05T01:50:33.675Z,37.00
2018-12-05T01:53:01.121Z,32.80
2018-12-05T01:55:30.556Z,25.17
2018-12-05T01:57:58.035Z,31.83
2018-12-05T02:00:25.493Z,26.30
2018-12-05T02:02:52.939Z,27.17
2018-12-05T02:05:20.382Z,29.80
2018-12-05T02:07:47.847Z,24.40
2018-12-05T02:10:15.290Z,26.53
2018-12-05T02:12:42.776Z,29.77
2018-12-05T02:15:10.283Z,29.07
2018-12-05T02:17:37.740Z,29.07
2018-12-05T02:20:05.804Z,35.10
2018-12-05T02:22:33.388Z,29.30
2018-12-05T02:25:00.936Z,31.30
2018-12-05T02:27:28.408Z,33.03
2018-12-05T02:29:57.709Z,29.10
2018-12-05T02:32:25.352Z,29.27
2018-12-05T02:34:52.812Z,30.77
2018-12-05T02:37:20.270Z,34.10
2018-12-05T02:39:47.719Z,30.17
2018-12-05T02:42:15.187Z,30.63
2018-12-05T02:44:42.624Z,32.67
2018-12-05T02:47:10.069Z,28.00
2018-12-05T02:49:37.528Z,29.00
2018-12-05T02:52:05.023Z,30.17
2018-12-05T02:54:32.482Z,27.70
2018-12-05T02:56:59.951Z,32.10
2018-12-05T02:59:27.431Z,29.70
2018-12-05T03:01:54.867Z,29.03
2018-12-05T03:04:22.322Z,27.20
2018-12-05T03:06:49.768Z,32.67
2018-12-05T03:09:17.212Z,31.93
2018-12-05T03:11:44.660Z,29.53
2018-12-05T03:14:12.128Z,29.13
2018-12-05T03:16:39.573Z,32.70
2018-12-05T03:19:07.106Z,27.30
2018-12-05T03:21:34.549Z,25.60
2018-12-05T03:24:02.078Z,28.50
2018-12-05T03:26:29.573Z,28.70
2018-12-05T03:28:57.035Z,29.70
2018-12-05T03:31:24.500Z,37.03
2018-12-05T03:33:52.059Z,35.77
2018-12-05T03:36:19.509Z,28.50
2018-12-05T03:38:46.984Z,25.97
2018-12-05T03:41:14.448Z,26.53
2018-12-05T03:43:41.900Z,26.97
2018-12-05T03:46:09.349Z,25.97
2018-12-05T03:48:36.827Z,28.30
2018-12-05T03:51:04.323Z,27.73
2018-12-05T03:53:31.779Z,31.20
2018-12-05T03:55:59.356Z,27.87
2018-12-05T03:58:26.831Z,29.50
2018-12-05T04:00:54.268Z,31.60
2018-12-05T04:03:21.767Z,35.60
2018-12-05T04:05:49.219Z,30.23
2018-12-05T04:08:16.676Z,30.67
2018-12-05T04:10:44.118Z,31.77
2018-12-05T04:13:11.635Z,32.43
2018-12-05T04:15:39.102Z,29.67
2018-12-05T04:18:06.548Z,27.47
2018-12-05T04:20:34.003Z,25.70
2018-12-05T04:23:01.573Z,26.50
2018-12-05T04:25:29.051Z,28.90
2018-12-05T04:27:56.493Z,27.80
2018-12-05T04:30:23.951Z,27.73
2018-12-05T04:32:51.404Z,24.27
2018-12-05T04:35:18.871Z,26.30
2018-12-05T04:37:46.308Z,27.83
2018-12-05T04:40:13.771Z,25.67
2018-12-05T04:42:41.374Z,26.33
2018-12-05T04:45:08.851Z,27.10
2018-12-05T04:47:36.318Z,24.27
2018-12-05T04:50:05.580Z,22.93
2018-12-05T04:52:33.022Z,21.93
2018-12-05T04:55:00.495Z,24.70
2018-12-05T04:57:28.059Z,24.40
2018-12-05T04:59:55.523Z,24.20
2018-12-05T05:02:23.023Z,24.83
2018-12-05T05:04:50.478Z,22.27
2018-12-05T05:07:17.923Z,20.93
2018-12-05T05:09:45.369Z,23.50
2018-12-05T05:12:12.810Z,23.90
2018-12-05T05:14:40.297Z,31.70
2018-12-05T05:17:07.816Z,28.60
2018-12-05T05:19:35.261Z,30.97
2018-12-05T05:22:02.724Z,20.00
2018-12-05T05:24:30.173Z,23.33
2018-12-05T05:26:57.616Z,19.73
2018-12-05T05:29:25.090Z,20.10
2018-12-05T05:31:52.538Z,18.57
2018-12-05T05:34:19.984Z,23.17
2018-12-05T05:36:47.434Z,22.40
2018-12-05T05:39:14.890Z,19.87
2018-12-05T05:41:42.324Z,16.20
2018-12-05T05:44:10.333Z,20.90
2018-12-05T05:46:37.929Z,18.17
2018-12-05T05:49:05.408Z,17.50
2018-12-05T05:51:32.879Z,18.10
2018-12-05T05:54:00.324Z,26.30
2018-12-05T05:56:27.790Z,17.90
2018-12-05T05:58:55.246Z,19.40
2018-12-05T06:01:22.696Z,21.43
2018-12-05T06:03:50.135Z,17.03
2018-12-05T06:06:17.664Z,17.70
2018-12-05T06:08:45.106Z,19.37
2018-12-05T06:11:12.565Z,17.67
2018-12-05T06:13:40.009Z,20.50
2018-12-05T06:16:07.466Z,19.63
2018-12-05T06:18:34.908Z,20.53
2018-12-05T06:21:02.356Z,23.50
2018-12-05T06:23:29.811Z,16.10
2018-12-05T06:25:57.257Z,18.90
2018-12-05T06:28:24.751Z,14.10
2018-12-05T06:30:52.219Z,20.40
2018-12-05T06:33:19.663Z,16.10
2018-12-05T06:35:47.122Z,18.80
2018-12-05T06:38:14.567Z,22.53
2018-12-05T06:40:42.027Z,26.27
2018-12-05T06:43:09.459Z,17.73
2018-12-05T06:45:36.922Z,42.30
2018-12-05T06:48:04.373Z,19.80
2018-12-05T06:50:31.816Z,22.73
2018-12-05T06:52:59.271Z,20.53
2018-12-05T06:55:26.745Z,23.47
2018-12-05T06:57:54.190Z,23.30
2018-12-05T07:00:21.638Z,21.40
2018-12-05T07:02:49.067Z,21.40
2018-12-05T07:05:16.534Z,24.47
2018-12-05T07:07:43.989Z,24.60
2018-12-05T07:10:11.450Z,20.80
2018-12-05T07:12:38.890Z,23.90
2018-12-05T07:15:06.474Z,21.73
2018-12-05T07:17:33.926Z,20.17
2018-12-05T07:20:01.386Z,20.87
2018-12-05T07:22:28.829Z,18.40
2018-12-05T07:24:56.272Z,18.70
2018-12-05T07:27:23.719Z,22.07
2018-12-05T07:29:51.174Z,21.77
2018-12-05T07:32:18.622Z,23.90
2018-12-05T07:34:46.059Z,22.93
2018-12-05T07:37:13.509Z,25.60
2018-12-05T07:39:40.955Z,28.67
2018-12-05T07:42:08.418Z,34.03
2018-12-05T07:44:35.869Z,34.97
2018-12-05T07:47:03.335Z,28.03
2018-12-05T07:49:30.771Z,29.00
2018-12-05T07:51:58.226Z,24.70
2018-12-05T07:54:25.660Z,22.57
2018-12-05T07:56:53.122Z,23.17
2018-12-05T07:59:20.557Z,27.20
2018-12-05T08:01:48.008Z,27.63
2018-12-05T08:04:15.441Z,27.23
2018-12-05T08:06:42.890Z,26.43
2018-12-05T08:09:10.336Z,25.47
2018-12-05T08:11:37.812Z,26.27
2018-12-05T08:14:06.639Z,26.70
2018-12-05T08:16:34.310Z,23.40
2018-12-05T08:19:01.757Z,31.10
2018-12-05T08:21:29.208Z,29.53
2018-12-05T08:23:56.660Z,24.67
2018-12-05T08:26:24.104Z,28.67
2018-12-05T08:28:51.588Z,26.37
2018-12-05T08:31:19.042Z,21.37
2018-12-05T08:33:46.494Z,22.27
2018-12-05T08:36:14.008Z,24.70
2018-12-05T08:38:41.448Z,23.90
2018-12-05T08:41:08.893Z,26.03
2018-12-05T08:43:36.397Z,27.00
2018-12-05T08:46:03.844Z,23.73
2018-12-05T08:48:31.310Z,31.07
2018-12-05T08:50:58.848Z,19.43
2018-12-05T08:53:26.293Z,22.57
2018-12-05T08:55:53.753Z,29.50
2018-12-05T08:58:21.184Z,25.80
2018-12-05T09:00:48.654Z,23.00
2018-12-05T09:03:16.083Z,28.83
2018-12-05T09:05:43.528Z,21.63
2018-12-05T09:08:10.978Z,24.77
2018-12-05T09:10:38.490Z,26.70
2018-12-05T09:13:05.967Z,24.00
2018-12-05T09:15:33.402Z,31.47
2018-12-05T09:18:00.853Z,28.90
2018-12-05T09:20:28.305Z,31.57
2018-12-05T09:22:55.753Z,40.73
2018-12-05T09:25:23.196Z,39.17
2018-12-05T09:27:50.659Z,41.23
2018-12-05T09:30:18.096Z,31.17
2018-12-05T09:32:45.559Z,27.17
2018-12-05T09:35:13.019Z,29.53
2018-12-05T09:37:40.479Z,30.70
2018-12-05T09:40:07.916Z,27.83
2018-12-05T09:42:35.380Z,25.67
2018-12-05T09:45:02.946Z,29.70
2018-12-05T09:47:30.917Z,25.97
2018-12-05T09:49:58.427Z,25.30
2018-12-05T09:52:25.876Z,35.47
2018-12-05T09:54:53.401Z,29.80
2018-12-05T09:57:20.920Z,25.10
2018-12-05T09:59:48.378Z,30.57
2018-12-05T10:02:15.856Z,29.03
2018-12-05T10:04:43.298Z,29.17
2018-12-05T10:07:10.766Z,28.93
2018-12-05T10:09:38.217Z,30.87
2018-12-05T10:12:05.690Z,28.67
2018-12-05T10:14:33.133Z,27.10
2018-12-05T10:17:00.666Z,28.73
2018-12-05T10:19:28.121Z,26.97
2018-12-05T10:21:55.590Z,29.63
2018-12-05T10:24:23.029Z,30.80
2018-12-05T10:26:50.511Z,27.63
2018-12-05T10:29:17.966Z,27.43
2018-12-05T10:31:45.424Z,32.93
2018-12-05T10:34:12.865Z,32.53
2018-12-05T10:36:40.331Z,28.13
2018-12-05T10:39:07.773Z,25.80
2018-12-05T10:41:35.246Z,30.90
2018-12-05T10:44:02.699Z,26.17
2018-12-05T10:46:30.164Z,29.63
2018-12-05T10:48:57.596Z,30.63
2018-12-05T10:51:25.056Z,28.00
2018-12-05T10:53:52.507Z,26.93
2018-12-05T10:56:20.005Z,24.10
2018-12-05T10:58:47.462Z,25.13
2018-12-05T11:01:20.674Z,28.90
2018-12-05T11:03:48.128Z,28.50
2018-12-05T11:06:17.535Z,25.67
2018-12-05T11:11:59.704Z,30.10
2018-12-05T11:14:32.846Z,32.43
2018-12-05T11:20:17.245Z,31.73
2018-12-05T11:22:50.491Z,27.27
2018-12-05T11:25:18.001Z,28.23
2018-12-05T11:27:45.469Z,29.40
2018-12-05T11:30:12.993Z,27.60
2018-12-05T11:32:40.466Z,25.80
2018-12-05T11:35:08.073Z,29.03
2018-12-05T11:37:35.589Z,26.50
2018-12-05T11:40:03.425Z,25.20
2018-12-05T11:42:30.911Z,23.27
2018-12-05T11:44:58.354Z,26.10
2018-12-05T11:47:25.826Z,28.53
2018-12-05T11:49:53.264Z,23.33
2018-12-05T11:52:20.724Z,26.50
2018-12-05T11:54:48.165Z,22.60
2018-12-05T11:57:15.632Z,21.47
2018-12-05T11:59:43.065Z,24.07
2018-12-05T12:02:10.535Z,25.23
2018-12-05T12:04:38.046Z,26.63
2018-12-05T12:07:05.518Z,21.53
2018-12-05T12:09:33.049Z,22.83
2018-12-05T12:12:00.505Z,22.53
2018-12-05T12:14:27.936Z,20.83
2018-12-05T12:16:55.443Z,19.87
2018-12-05T12:19:22.911Z,21.53
2018-12-05T12:21:50.348Z,25.80
2018-12-05T12:24:17.875Z,22.90
2018-12-05T12:26:45.308Z,23.07
2018-12-05T12:29:12.766Z,20.87
2018-12-05T12:31:40.205Z,22.40
2018-12-05T12:34:07.893Z,23.87
2018-12-05T12:36:35.324Z,21.83
2018-12-05T12:39:02.815Z,21.27
2018-12-05T12:41:30.249Z,20.37
2018-12-05T12:43:57.734Z,16.37
2018-12-05T12:46:25.180Z,24.50
2018-12-05T12:48:52.668Z,21.37
2018-12-05T12:51:20.195Z,23.83
2018-12-05T12:53:47.670Z,22.90
2018-12-05T12:56:15.104Z,24.23
2018-12-05T12:58:42.579Z,30.90
2018-12-05T13:01:10.138Z,24.43
2018-12-05T13:03:37.599Z,24.03
2018-12-05T13:06:05.098Z,25.03
2018-12-05T13:08:32.567Z,24.60
2018-12-05T13:11:00.041Z,31.30
2018-12-05T13:13:27.556Z,20.93
2018-12-05T13:15:55.015Z,24.20
2018-12-05T13:18:22.482Z,27.70
2018-12-05T13:20:49.920Z,26.90
2018-12-05T13:23:17.380Z,23.63
2018-12-05T13:25:44.839Z,20.60
2018-12-05T13:28:12.302Z,19.30
2018-12-05T13:30:39.797Z,20.80
2018-12-05T13:33:07.312Z,19.90
2018-12-05T13:35:34.767Z,24.43
2018-12-05T13:38:02.225Z,23.70
2018-12-05T13:40:29.672Z,19.00
2018-12-05T13:42:57.112Z,16.07
2018-12-05T13:45:24.660Z,19.63
2018-12-05T13:47:52.113Z,18.00
2018-12-05T13:50:19.561Z,18.10
2018-12-05T13:52:47.072Z,16.83
2018-12-05T13:55:14.549Z,25.70
2018-12-05T13:57:41.982Z,17.13
2018-12-05T14:00:09.952Z,16.90
2018-12-05T14:02:37.406Z,16.93
2018-12-05T14:05:04.976Z,19.33
2018-12-05T14:07:32.428Z,15.73
2018-12-05T14:09:59.885Z,19.23
2018-12-05T14:12:27.582Z,19.27
2018-12-05T14:14:55.408Z,20.83
2018-12-05T14:17:23.000Z,16.13
2018-12-05T14:19:50.441Z,17.47
2018-12-05T14:22:17.880Z,20.87
2018-12-05T14:24:45.367Z,19.03
2018-12-05T14:27:12.808Z,17.63
2018-12-05T14:29:40.265Z,19.13
2018-12-05T14:32:07.726Z,20.17
2018-12-05T14:34:35.172Z,18.40
2018-12-05T14:37:02.609Z,17.10
2018-12-05T14:39:30.082Z,20.30
2018-12-05T14:41:57.531Z,18.40
2018-12-05T14:44:24.986Z,19.37
2018-12-05T14:46:52.420Z,17.60
2018-12-05T14:49:19.907Z,21.37
2018-12-05T14:51:47.371Z,21.23
2018-12-05T14:54:14.820Z,18.37
2018-12-05T14:56:42.286Z,20.63
2018-12-05T14:59:09.734Z,17.70
2018-12-05T15:01:37.190Z,19.27
2018-12-05T15:04:04.647Z,17.93
2018-12-05T15:06:32.105Z,18.33
2018-12-05T15:08:59.560Z,14.00
2018-12-05T15:11:27.061Z,18.90
2018-12-05T15:13:54.508Z,14.57
2018-12-05T15:16:21.979Z,30.50
2018-12-05T15:18:49.656Z,16.70
2018-12-05T15:21:17.120Z,15.07
2018-12-05T15:23:44.593Z,16.93
2018-12-05T15:26:12.109Z,21.03
2018-12-05T15:28:39.563Z,13.40
2018-12-05T15:31:07.010Z,19.57
2018-12-05T15:33:34.535Z,13.60
2018-12-05T15:36:02.003Z,17.13
2018-12-05T15:38:29.490Z,18.60
2018-12-05T15:40:57.002Z,17.70
2018-12-05T15:43:24.447Z,16.30
2018-12-05T15:45:51.895Z,16.07
2018-12-05T15:48:20.784Z,19.17
2018-12-05T15:50:48.397Z,19.47
2018-12-05T15:53:15.846Z,19.10
2018-12-05T15:55:43.293Z,19.30
2018-12-05T15:58:10.732Z,18.20
2018-12-05T16:00:38.217Z,22.67
2018-12-05T16:03:05.658Z,17.53
2018-12-05T16:05:33.112Z,16.40
2018-12-05T16:08:00.568Z,18.80
2018-12-05T16:10:28.012Z,19.50
2018-12-05T16:12:55.456Z,20.87
2018-12-05T16:15:22.932Z,18.07
2018-12-05T16:17:50.369Z,17.20
2018-12-05T16:20:17.818Z,18.27
2018-12-05T16:22:45.271Z,18.20
2018-12-05T16:25:12.720Z,20.93
2018-12-05T16:27:40.175Z,20.70
2018-12-05T16:30:07.755Z,23.47
2018-12-05T16:32:35.260Z,23.13
2018-12-05T16:35:02.780Z,23.07
2018-12-05T16:37:30.220Z,21.33
2018-12-05T16:39:57.653Z,20.00
2018-12-05T16:42:25.136Z,21.97
2018-12-05T16:44:52.562Z,49.37
2018-12-05T16:47:20.022Z,24.97
2018-12-05T16:49:47.458Z,20.70
2018-12-05T16:52:14.904Z,21.20
2018-12-05T16:54:42.813Z,23.47
2018-12-05T16:57:10.359Z,24.87
2018-12-05T16:59:37.793Z,28.83
2018-12-05T17:02:05.356Z,23.27
2018-12-05T17:04:32.796Z,21.50
2018-12-05T17:07:00.249Z,22.17
2018-12-05T17:09:27.694Z,24.80
2018-12-05T17:11:55.166Z,25.50
2018-12-05T17:14:22.629Z,21.07
2018-12-05T17:16:50.080Z,25.90
2018-12-05T17:19:17.514Z,22.67
2018-12-05T17:21:44.972Z,26.97
2018-12-05T17:24:12.423Z,23.60
2018-12-05T17:26:39.866Z,20.87
2018-12-05T17:29:07.306Z,24.33
2018-12-05T17:31:34.752Z,24.03
2018-12-05T17:34:02.207Z,24.40
2018-12-05T17:36:29.672Z,24.97
2018-12-05T17:38:57.111Z,28.70
2018-12-05T17:41:24.570Z,29.70
2018-12-05T17:43:52.004Z,28.67
2018-12-05T17:46:19.562Z,28.27
2018-12-05T17:48:47.029Z,34.73
2018-12-05T17:51:14.472Z,31.67
2018-12-05T17:53:41.927Z,33.73
2018-12-05T17:56:09.411Z,43.43
2018-12-05T17:58:36.855Z,49.03
2018-12-05T18:01:04.305Z,34.03
2018-12-05T18:03:31.770Z,26.70
2018-12-05T18:05:59.285Z,23.77
2018-12-05T18:08:26.738Z,20.17
2018-12-05T18:10:54.260Z,23.50
2018-12-05T18:13:21.731Z,22.67
2018-12-05T18:15:49.156Z,25.10
2018-12-05T18:18:16.627Z,28.37
2018-12-05T18:20:44.097Z,24.70
2018-12-05T18:23:11.554Z,24.23
2018-12-05T18:25:39.077Z,24.77
2018-12-05T18:28:06.533Z,21.83
2018-12-05T18:30:34.056Z,23.57
2018-12-05T18:33:01.492Z,23.00
2018-12-05T18:35:28.966Z,21.70
2018-12-05T18:37:56.427Z,29.30
2018-12-05T18:40:23.927Z,21.90
2018-12-05T18:42:51.371Z,19.40
2018-12-05T18:45:18.812Z,19.87
2018-12-05T18:47:46.261Z,19.10
2018-12-05T18:50:13.708Z,21.33
2018-12-05T18:52:41.177Z,23.73
2018-12-05T18:55:08.630Z,24.90
2018-12-05T18:57:36.074Z,25.60
2018-12-05T19:00:05.344Z,26.83
2018-12-05T19:02:32.793Z,26.83
2018-12-05T19:05:00.223Z,22.20
2018-12-05T19:07:27.692Z,24.23
2018-12-05T19:09:55.138Z,23.33
2018-12-05T19:12:22.584Z,23.17
2018-12-05T19:14:50.104Z,29.00
2018-12-05T19:17:17.544Z,23.13
2018-12-05T19:19:45.011Z,25.10
2018-12-05T19:22:12.542Z,32.30
2018-12-05T19:24:39.973Z,25.03
2018-12-05T19:27:07.439Z,25.13
2018-12-05T19:29:34.883Z,21.30
2018-12-05T19:32:02.346Z,22.67
2018-12-05T19:34:29.798Z,22.73
2018-12-05T19:36:57.258Z,20.93
2018-12-05T19:39:24.688Z,19.13
2018-12-05T19:41:52.193Z,20.77
2018-12-05T19:44:19.629Z,21.10
2018-12-05T19:46:47.218Z,23.83
2018-12-05T19:49:14.665Z,22.97
2018-12-05T19:51:42.122Z,30.83
2018-12-05T19:54:09.633Z,20.57
2018-12-05T19:56:37.080Z,20.10
2018-12-05T19:59:04.517Z,20.70
2018-12-05T20:01:31.990Z,23.93
2018-12-05T20:03:59.529Z,22.70
2018-12-05T20:06:27.076Z,19.23
2018-12-05T20:08:54.511Z,26.60
2018-12-05T20:11:21.964Z,20.13
2018-12-05T20:13:49.413Z,24.90
2018-12-05T20:16:18.450Z,21.77
2018-12-05T20:18:45.882Z,19.80
2018-12-05T20:21:13.380Z,19.03
2018-12-05T20:23:40.812Z,24.77
2018-12-05T20:26:08.261Z,19.17
2018-12-05T20:28:35.707Z,20.77
2018-12-05T20:31:03.201Z,19.43
2018-12-05T20:33:30.650Z,16.63
2018-12-05T20:35:58.081Z,16.23
2018-12-05T20:38:25.536Z,20.40
2018-12-05T20:40:53.037Z,21.60
2018-12-05T20:43:20.499Z,19.43
2018-12-05T20:45:47.957Z,23.70
2018-12-05T20:48:15.431Z,16.03
2018-12-05T20:50:42.918Z,16.70
2018-12-05T20:53:10.380Z,18.17
2018-12-05T20:55:37.905Z,16.50
2018-12-05T20:58:05.332Z,16.37
2018-12-05T21:00:32.768Z,19.50
2018-12-05T21:03:00.226Z,19.70
2018-12-05T21:05:27.702Z,18.33
2018-12-05T21:07:55.230Z,16.50
2018-12-05T21:10:22.656Z,19.37
2018-12-05T21:12:50.127Z,18.37
2018-12-05T21:15:17.664Z,18.20
2018-12-05T21:17:45.160Z,19.07
2018-12-05T21:20:12.708Z,21.07
2018-12-05T21:22:46.937Z,19.77
2018-12-05T21:25:09.624Z,22.40
2018-12-05T21:27:37.819Z,23.30
2018-12-05T21:30:05.991Z,30.80
2018-12-05T21:32:33.464Z,23.43
2018-12-05T21:35:00.906Z,18.27
2018-12-05T21:37:28.364Z,16.60
2018-12-05T21:39:55.866Z,20.80
2018-12-05T21:42:23.312Z,16.87
2018-12-05T21:44:50.748Z,16.50
2018-12-05T21:47:18.209Z,14.73
2018-12-05T21:49:46.010Z,15.67
2018-12-05T21:52:13.435Z,13.10
2018-12-05T21:54:40.873Z,15.87
2018-12-05T21:57:08.350Z,15.97
2018-12-05T21:59:35.783Z,17.83
2018-12-05T22:02:03.251Z,20.10
2018-12-05T22:04:30.736Z,17.20
2018-12-05T22:06:58.229Z,17.73
2018-12-05T22:09:25.666Z,14.00
2018-12-05T22:11:53.151Z,18.87
2018-12-05T22:14:20.576Z,15.63
2018-12-05T22:16:48.045Z,20.43
2018-12-05T22:19:15.492Z,20.50
2018-12-05T22:21:42.941Z,17.43
2018-12-05T22:24:10.388Z,17.93
2018-12-05T22:26:37.851Z,13.17
2018-12-05T22:29:05.376Z,13.70
2018-12-05T22:31:32.812Z,13.43
2018-12-05T22:34:00.260Z,14.40
2018-12-05T22:36:27.711Z,27.73
2018-12-05T22:38:55.156Z,18.43
2018-12-05T22:41:22.595Z,15.53
2018-12-05T22:43:50.043Z,12.80
2018-12-05T22:46:17.490Z,11.63
2018-12-05T22:48:44.950Z,11.27
2018-12-05T22:51:12.382Z,12.90
2018-12-05T22:53:39.852Z,10.77
2018-12-05T22:56:07.293Z,12.23
2018-12-05T22:58:34.755Z,9.40
2018-12-05T23:01:02.296Z,18.60
2018-12-05T23:03:29.741Z,10.97
2018-12-05T23:05:57.172Z,14.07
2018-12-05T23:08:24.615Z,14.07
2018-12-05T23:10:52.062Z,14.20
2018-12-05T23:13:19.511Z,13.43
2018-12-05T23:15:46.949Z,14.50
2018-12-05T23:18:14.459Z,13.60
2018-12-05T23:20:41.890Z,15.10
2018-12-05T23:23:09.344Z,15.43
2018-12-05T23:25:36.790Z,16.20
2018-12-05T23:28:04.249Z,14.23
2018-12-05T23:30:31.733Z,14.17
2018-12-05T23:32:59.232Z,13.20
2018-12-05T23:35:26.670Z,14.23
2018-12-05T23:37:54.135Z,10.70
2018-12-05T23:40:21.560Z,11.20
2018-12-05T23:42:49.077Z,12.30
2018-12-05T23:45:17.265Z,15.50
2018-12-05T23:47:44.700Z,16.03
2018-12-05T23:50:12.156Z,16.73
2018-12-05T23:52:39.617Z,19.77
2018-12-05T23:55:07.176Z,20.70
2018-12-05T23:57:34.703Z,19.07
